sensor_id;sensor_type;location;lat;lon;timestamp;temperature;humidity
12959;DHT22;6544;51.666;6.634;2022-10-31T00:01:44;15.40;1.00
12959;DHT22;6544;51.666;6.634;2022-10-31T00:04:12;15.30;1.00
12959;DHT22;6544;51.666;6.634;2022-10-31T00:06:39;15.30;1.00
12959;DHT22;6544;51.666;6.634;2022-10-31T00:09:06;15.30;1.00
12959;DHT22;6544;51.666;6.634;2022-10-31T00:11:33;15.50;1.00
12959;DHT22;6544;51.666;6.634;2022-10-31T00:14:00;15.70;1.00
12959;DHT22;6544;51.666;6.634;2022-10-31T00:16:28;15.80;99.90
12959;DHT22;6544;51.666;6.634;2022-10-31T00:18:56;15.70;1.00
12959;DHT22;6544;51.666;6.634;2022-10-31T00:21:25;15.50;99.90
12959;DHT22;6544;51.666;6.634;2022-10-31T00:23:53;15.60;40.30
12959;DHT22;6544;51.666;6.634;2022-10-31T00:26:20;15.50;1.00
12959;DHT22;6544;51.666;6.634;2022-10-31T00:28:47;15.40;1.00
12959;DHT22;6544;51.666;6.634;2022-10-31T00:31:14;15.40;15.80
12959;DHT22;6544;51.666;6.634;2022-10-31T00:33:42;15.50;1.00
12959;DHT22;6544;51.666;6.634;2022-10-31T00:36:12;15.80;1.00
12959;DHT22;6544;51.666;6.634;2022-10-31T00:38:41;15.90;99.90
12959;DHT22;6544;51.666;6.634;2022-10-31T00:41:08;16.00;99.90
12959;DHT22;6544;51.666;6.634;2022-10-31T00:43:35;16.20;1.00
12959;DHT22;6544;51.666;6.634;2022-10-31T00:46:01;16.20;99.90
12959;DHT22;6544;51.666;6.634;2022-10-31T00:48:29;16.30;99.90
12959;DHT22;6544;51.666;6.634;2022-10-31T00:50:56;16.40;99.90
12959;DHT22;6544;51.666;6.634;2022-10-31T00:53:23;16.30;99.90
12959;DHT22;6544;51.666;6.634;2022-10-31T00:55:51;16.00;1.00
12959;DHT22;6544;51.666;6.634;2022-10-31T00:58:18;16.00;1.00
12959;DHT22;6544;51.666;6.634;2022-10-31T01:00:46;16.10;1.00
12959;DHT22;6544;51.666;6.634;2022-10-31T01:03:20;16.30;99.90
12959;DHT22;6544;51.666;6.634;2022-10-31T01:05:58;16.40;1.00
12959;DHT22;6544;51.666;6.634;2022-10-31T01:08:25;16.40;1.00
12959;DHT22;6544;51.666;6.634;2022-10-31T01:11:03;16.50;99.90
12959;DHT22;6544;51.666;6.634;2022-10-31T01:13:30;16.50;99.90
12959;DHT22;6544;51.666;6.634;2022-10-31T01:15:58;16.50;1.00
12959;DHT22;6544;51.666;6.634;2022-10-31T01:18:25;16.40;1.00
12959;DHT22;6544;51.666;6.634;2022-10-31T01:21:00;16.40;49.10
12959;DHT22;6544;51.666;6.634;2022-10-31T01:23:27;16.40;1.00
12959;DHT22;6544;51.666;6.634;2022-10-31T01:26:08;16.40;1.00
12959;DHT22;6544;51.666;6.634;2022-10-31T01:28:36;16.40;1.00
12959;DHT22;6544;51.666;6.634;2022-10-31T01:31:06;16.40;99.90
12959;DHT22;6544;51.666;6.634;2022-10-31T01:33:33;16.30;99.90
12959;DHT22;6544;51.666;6.634;2022-10-31T01:36:00;16.30;99.90
12959;DHT22;6544;51.666;6.634;2022-10-31T01:38:27;16.30;1.00
12959;DHT22;6544;51.666;6.634;2022-10-31T01:40:54;16.30;99.90
12959;DHT22;6544;51.666;6.634;2022-10-31T01:43:23;16.30;99.90
12959;DHT22;6544;51.666;6.634;2022-10-31T01:45:53;16.30;78.90
12959;DHT22;6544;51.666;6.634;2022-10-31T01:48:24;16.20;1.00
12959;DHT22;6544;51.666;6.634;2022-10-31T01:50:54;16.10;99.90
12959;DHT22;6544;51.666;6.634;2022-10-31T01:53:22;16.20;99.90
12959;DHT22;6544;51.666;6.634;2022-10-31T01:55:50;16.10;7.10
12959;DHT22;6544;51.666;6.634;2022-10-31T01:58:21;16.10;99.90
12959;DHT22;6544;51.666;6.634;2022-10-31T02:00:53;16.10;1.00
12959;DHT22;6544;51.666;6.634;2022-10-31T02:03:22;16.00;28.40
12959;DHT22;6544;51.666;6.634;2022-10-31T02:05:50;15.90;99.90
12959;DHT22;6544;51.666;6.634;2022-10-31T02:08:21;15.80;99.90
12959;DHT22;6544;51.666;6.634;2022-10-31T02:10:49;15.80;1.00
12959;DHT22;6544;51.666;6.634;2022-10-31T02:13:17;15.70;90.60
12959;DHT22;6544;51.666;6.634;2022-10-31T02:15:45;15.70;25.50
12959;DHT22;6544;51.666;6.634;2022-10-31T02:18:15;15.80;1.00
12959;DHT22;6544;51.666;6.634;2022-10-31T02:20:50;15.70;99.90
12959;DHT22;6544;51.666;6.634;2022-10-31T02:23:47;15.70;1.00
12959;DHT22;6544;51.666;6.634;2022-10-31T02:26:41;15.80;99.90
12959;DHT22;6544;51.666;6.634;2022-10-31T02:29:38;15.70;99.90
12959;DHT22;6544;51.666;6.634;2022-10-31T02:32:15;15.60;1.00
12959;DHT22;6544;51.666;6.634;2022-10-31T02:34:50;15.40;1.00
12959;DHT22;6544;51.666;6.634;2022-10-31T02:37:24;15.40;1.00
12959;DHT22;6544;51.666;6.634;2022-10-31T02:39:54;15.30;1.00
12959;DHT22;6544;51.666;6.634;2022-10-31T02:42:26;15.30;1.00
12959;DHT22;6544;51.666;6.634;2022-10-31T02:45:01;15.30;99.90
12959;DHT22;6544;51.666;6.634;2022-10-31T02:47:34;15.30;85.30
12959;DHT22;6544;51.666;6.634;2022-10-31T02:50:06;15.30;1.00
12959;DHT22;6544;51.666;6.634;2022-10-31T02:52:34;15.30;1.00
12959;DHT22;6544;51.666;6.634;2022-10-31T02:55:10;15.30;1.00
12959;DHT22;6544;51.666;6.634;2022-10-31T02:57:40;15.30;99.90
12959;DHT22;6544;51.666;6.634;2022-10-31T03:00:09;15.20;1.00
12959;DHT22;6544;51.666;6.634;2022-10-31T03:02:52;15.10;1.00
12959;DHT22;6544;51.666;6.634;2022-10-31T03:05:32;15.10;1.00
12959;DHT22;6544;51.666;6.634;2022-10-31T03:08:08;15.10;1.00
12959;DHT22;6544;51.666;6.634;2022-10-31T03:10:42;15.10;1.00
12959;DHT22;6544;51.666;6.634;2022-10-31T03:13:14;15.10;1.00
12959;DHT22;6544;51.666;6.634;2022-10-31T03:15:45;15.10;1.00
12959;DHT22;6544;51.666;6.634;2022-10-31T03:18:19;15.10;1.00
12959;DHT22;6544;51.666;6.634;2022-10-31T03:20:51;15.10;1.00
12959;DHT22;6544;51.666;6.634;2022-10-31T03:23:22;15.10;1.00
12959;DHT22;6544;51.666;6.634;2022-10-31T03:25:51;15.10;1.00
12959;DHT22;6544;51.666;6.634;2022-10-31T03:28:23;15.10;1.00
12959;DHT22;6544;51.666;6.634;2022-10-31T03:30:54;15.00;1.00
12959;DHT22;6544;51.666;6.634;2022-10-31T03:33:26;15.00;1.00
12959;DHT22;6544;51.666;6.634;2022-10-31T03:35:55;15.00;99.90
12959;DHT22;6544;51.666;6.634;2022-10-31T03:38:23;14.90;99.90
12959;DHT22;6544;51.666;6.634;2022-10-31T03:40:52;14.90;1.00
12959;DHT22;6544;51.666;6.634;2022-10-31T03:43:24;14.90;99.90
12959;DHT22;6544;51.666;6.634;2022-10-31T03:45:53;14.80;99.90
12959;DHT22;6544;51.666;6.634;2022-10-31T03:48:21;14.80;1.00
12959;DHT22;6544;51.666;6.634;2022-10-31T03:50:56;14.80;1.00
12959;DHT22;6544;51.666;6.634;2022-10-31T03:53:30;14.80;99.90
12959;DHT22;6544;51.666;6.634;2022-10-31T03:56:02;14.60;1.00
12959;DHT22;6544;51.666;6.634;2022-10-31T03:58:33;14.70;1.00
12959;DHT22;6544;51.666;6.634;2022-10-31T04:01:05;14.60;99.90
12959;DHT22;6544;51.666;6.634;2022-10-31T04:03:36;14.70;1.00
12959;DHT22;6544;51.666;6.634;2022-10-31T04:06:07;14.60;99.90
12959;DHT22;6544;51.666;6.634;2022-10-31T04:08:40;14.60;99.90
12959;DHT22;6544;51.666;6.634;2022-10-31T04:11:09;14.40;99.90
12959;DHT22;6544;51.666;6.634;2022-10-31T04:13:40;14.30;99.90
12959;DHT22;6544;51.666;6.634;2022-10-31T04:16:09;14.20;1.00
12959;DHT22;6544;51.666;6.634;2022-10-31T04:18:38;14.20;1.00
12959;DHT22;6544;51.666;6.634;2022-10-31T04:21:06;14.30;1.00
12959;DHT22;6544;51.666;6.634;2022-10-31T04:23:35;14.40;1.00
12959;DHT22;6544;51.666;6.634;2022-10-31T04:26:03;14.40;99.90
12959;DHT22;6544;51.666;6.634;2022-10-31T04:28:30;14.40;99.90
12959;DHT22;6544;51.666;6.634;2022-10-31T04:30:58;14.40;99.90
12959;DHT22;6544;51.666;6.634;2022-10-31T04:33:25;14.30;99.90
12959;DHT22;6544;51.666;6.634;2022-10-31T04:35:53;14.20;1.00
12959;DHT22;6544;51.666;6.634;2022-10-31T04:38:20;14.20;1.00
12959;DHT22;6544;51.666;6.634;2022-10-31T04:40:47;14.20;99.90
12959;DHT22;6544;51.666;6.634;2022-10-31T04:43:13;14.20;99.90
12959;DHT22;6544;51.666;6.634;2022-10-31T04:45:40;14.20;99.90
12959;DHT22;6544;51.666;6.634;2022-10-31T04:48:07;14.20;99.90
12959;DHT22;6544;51.666;6.634;2022-10-31T04:50:34;14.20;99.90
12959;DHT22;6544;51.666;6.634;2022-10-31T04:53:02;14.20;99.90
12959;DHT22;6544;51.666;6.634;2022-10-31T04:55:29;14.20;99.90
12959;DHT22;6544;51.666;6.634;2022-10-31T04:57:56;14.10;99.90
12959;DHT22;6544;51.666;6.634;2022-10-31T05:00:24;14.10;1.00
12959;DHT22;6544;51.666;6.634;2022-10-31T05:02:52;13.90;1.00
12959;DHT22;6544;51.666;6.634;2022-10-31T05:05:21;14.00;1.00
12959;DHT22;6544;51.666;6.634;2022-10-31T05:07:49;14.00;1.00
12959;DHT22;6544;51.666;6.634;2022-10-31T05:10:19;14.00;99.90
12959;DHT22;6544;51.666;6.634;2022-10-31T05:12:46;14.00;1.00
12959;DHT22;6544;51.666;6.634;2022-10-31T05:15:14;13.90;1.00
12959;DHT22;6544;51.666;6.634;2022-10-31T05:17:41;13.80;1.00
12959;DHT22;6544;51.666;6.634;2022-10-31T05:20:09;13.80;99.90
12959;DHT22;6544;51.666;6.634;2022-10-31T05:22:36;13.80;99.90
12959;DHT22;6544;51.666;6.634;2022-10-31T05:25:03;13.80;99.90
12959;DHT22;6544;51.666;6.634;2022-10-31T05:27:32;13.80;99.90
12959;DHT22;6544;51.666;6.634;2022-10-31T05:29:58;13.80;1.00
12959;DHT22;6544;51.666;6.634;2022-10-31T05:32:25;13.80;1.00
12959;DHT22;6544;51.666;6.634;2022-10-31T05:34:52;13.80;1.00
12959;DHT22;6544;51.666;6.634;2022-10-31T05:37:19;13.80;1.00
12959;DHT22;6544;51.666;6.634;2022-10-31T05:39:46;13.80;1.00
12959;DHT22;6544;51.666;6.634;2022-10-31T05:42:13;13.80;99.90
12959;DHT22;6544;51.666;6.634;2022-10-31T05:44:41;13.70;99.90
12959;DHT22;6544;51.666;6.634;2022-10-31T05:47:08;13.70;99.90
12959;DHT22;6544;51.666;6.634;2022-10-31T05:49:35;13.60;1.00
12959;DHT22;6544;51.666;6.634;2022-10-31T05:52:01;13.50;99.90
12959;DHT22;6544;51.666;6.634;2022-10-31T05:54:28;13.60;99.90
12959;DHT22;6544;51.666;6.634;2022-10-31T05:56:55;13.70;1.00
12959;DHT22;6544;51.666;6.634;2022-10-31T05:59:22;13.70;99.90
12959;DHT22;6544;51.666;6.634;2022-10-31T06:01:50;13.70;99.90
12959;DHT22;6544;51.666;6.634;2022-10-31T06:04:17;13.60;1.00
12959;DHT22;6544;51.666;6.634;2022-10-31T06:06:44;13.60;1.00
12959;DHT22;6544;51.666;6.634;2022-10-31T06:09:11;13.60;1.00
12959;DHT22;6544;51.666;6.634;2022-10-31T06:11:38;13.50;99.90
12959;DHT22;6544;51.666;6.634;2022-10-31T06:14:05;13.50;99.90
12959;DHT22;6544;51.666;6.634;2022-10-31T06:16:33;13.40;1.00
12959;DHT22;6544;51.666;6.634;2022-10-31T06:19:01;13.50;1.00
12959;DHT22;6544;51.666;6.634;2022-10-31T06:21:28;13.50;1.00
12959;DHT22;6544;51.666;6.634;2022-10-31T06:23:54;13.50;99.90
12959;DHT22;6544;51.666;6.634;2022-10-31T06:26:21;13.50;99.90
12959;DHT22;6544;51.666;6.634;2022-10-31T06:28:48;13.30;1.00
12959;DHT22;6544;51.666;6.634;2022-10-31T06:31:15;13.10;99.90
12959;DHT22;6544;51.666;6.634;2022-10-31T06:33:42;13.10;99.90
12959;DHT22;6544;51.666;6.634;2022-10-31T06:36:10;13.20;99.90
12959;DHT22;6544;51.666;6.634;2022-10-31T06:38:37;13.30;1.00
12959;DHT22;6544;51.666;6.634;2022-10-31T06:41:05;13.30;10.70
12959;DHT22;6544;51.666;6.634;2022-10-31T06:43:32;13.30;1.00
12959;DHT22;6544;51.666;6.634;2022-10-31T06:46:02;13.30;1.00
12959;DHT22;6544;51.666;6.634;2022-10-31T06:48:29;13.40;1.00
12959;DHT22;6544;51.666;6.634;2022-10-31T06:50:57;13.40;1.00
12959;DHT22;6544;51.666;6.634;2022-10-31T06:53:27;13.30;1.00
12959;DHT22;6544;51.666;6.634;2022-10-31T06:55:55;13.30;99.90
12959;DHT22;6544;51.666;6.634;2022-10-31T06:58:22;13.40;23.50
12959;DHT22;6544;51.666;6.634;2022-10-31T07:00:49;13.40;1.00
12959;DHT22;6544;51.666;6.634;2022-10-31T07:03:16;13.40;1.00
12959;DHT22;6544;51.666;6.634;2022-10-31T07:05:44;13.40;1.00
12959;DHT22;6544;51.666;6.634;2022-10-31T07:08:12;13.30;44.90
12959;DHT22;6544;51.666;6.634;2022-10-31T07:10:41;13.30;1.00
12959;DHT22;6544;51.666;6.634;2022-10-31T07:13:11;13.30;42.60
12959;DHT22;6544;51.666;6.634;2022-10-31T07:15:39;13.20;99.90
12959;DHT22;6544;51.666;6.634;2022-10-31T07:18:09;13.30;1.00
12959;DHT22;6544;51.666;6.634;2022-10-31T07:20:36;13.20;99.90
12959;DHT22;6544;51.666;6.634;2022-10-31T07:23:03;13.20;1.00
12959;DHT22;6544;51.666;6.634;2022-10-31T07:25:30;13.10;99.90
12959;DHT22;6544;51.666;6.634;2022-10-31T07:27:58;13.10;1.00
12959;DHT22;6544;51.666;6.634;2022-10-31T07:30:25;13.20;99.90
12959;DHT22;6544;51.666;6.634;2022-10-31T07:32:52;13.20;1.00
12959;DHT22;6544;51.666;6.634;2022-10-31T07:35:22;13.20;1.00
12959;DHT22;6544;51.666;6.634;2022-10-31T07:37:49;13.30;1.00
12959;DHT22;6544;51.666;6.634;2022-10-31T07:40:18;13.40;99.90
12959;DHT22;6544;51.666;6.634;2022-10-31T07:42:46;13.40;99.90
12959;DHT22;6544;51.666;6.634;2022-10-31T07:45:16;13.20;1.00
12959;DHT22;6544;51.666;6.634;2022-10-31T07:47:44;13.20;99.90
12959;DHT22;6544;51.666;6.634;2022-10-31T07:50:13;13.30;54.70
12959;DHT22;6544;51.666;6.634;2022-10-31T07:52:41;13.20;99.90
12959;DHT22;6544;51.666;6.634;2022-10-31T07:55:08;13.20;1.00
12959;DHT22;6544;51.666;6.634;2022-10-31T07:57:35;13.20;1.00
12959;DHT22;6544;51.666;6.634;2022-10-31T08:00:03;13.20;1.00
12959;DHT22;6544;51.666;6.634;2022-10-31T08:02:31;13.30;1.00
12959;DHT22;6544;51.666;6.634;2022-10-31T08:04:58;13.40;1.00
12959;DHT22;6544;51.666;6.634;2022-10-31T08:07:27;13.40;1.00
12959;DHT22;6544;51.666;6.634;2022-10-31T08:09:54;13.40;1.00
12959;DHT22;6544;51.666;6.634;2022-10-31T08:12:21;13.50;1.00
12959;DHT22;6544;51.666;6.634;2022-10-31T08:14:48;13.50;1.00
12959;DHT22;6544;51.666;6.634;2022-10-31T08:17:16;13.50;1.00
12959;DHT22;6544;51.666;6.634;2022-10-31T08:19:44;13.50;1.00
12959;DHT22;6544;51.666;6.634;2022-10-31T08:22:11;13.70;1.00
12959;DHT22;6544;51.666;6.634;2022-10-31T08:24:38;13.70;1.00
12959;DHT22;6544;51.666;6.634;2022-10-31T08:27:05;13.80;1.00
12959;DHT22;6544;51.666;6.634;2022-10-31T08:29:32;13.70;99.90
12959;DHT22;6544;51.666;6.634;2022-10-31T08:31:59;13.70;99.90
12959;DHT22;6544;51.666;6.634;2022-10-31T08:34:25;13.80;99.90
12959;DHT22;6544;51.666;6.634;2022-10-31T08:36:54;13.90;99.90
12959;DHT22;6544;51.666;6.634;2022-10-31T08:39:21;14.00;60.30
12959;DHT22;6544;51.666;6.634;2022-10-31T08:41:48;14.00;94.90
12959;DHT22;6544;51.666;6.634;2022-10-31T08:44:15;14.00;99.90
12959;DHT22;6544;51.666;6.634;2022-10-31T08:46:43;14.00;99.90
12959;DHT22;6544;51.666;6.634;2022-10-31T08:49:10;14.00;99.90
12959;DHT22;6544;51.666;6.634;2022-10-31T08:51:37;14.00;1.00
12959;DHT22;6544;51.666;6.634;2022-10-31T08:54:05;14.00;1.00
12959;DHT22;6544;51.666;6.634;2022-10-31T08:56:32;14.10;1.00
12959;DHT22;6544;51.666;6.634;2022-10-31T08:58:59;14.20;1.00
12959;DHT22;6544;51.666;6.634;2022-10-31T09:01:26;14.30;1.00
12959;DHT22;6544;51.666;6.634;2022-10-31T09:03:53;14.40;99.90
12959;DHT22;6544;51.666;6.634;2022-10-31T09:06:20;14.40;99.90
12959;DHT22;6544;51.666;6.634;2022-10-31T09:08:47;14.50;99.90
12959;DHT22;6544;51.666;6.634;2022-10-31T09:11:15;14.60;99.90
12959;DHT22;6544;51.666;6.634;2022-10-31T09:13:42;14.80;99.90
12959;DHT22;6544;51.666;6.634;2022-10-31T09:16:09;14.90;99.90
12959;DHT22;6544;51.666;6.634;2022-10-31T09:18:36;14.90;99.90
12959;DHT22;6544;51.666;6.634;2022-10-31T09:21:03;14.90;99.90
12959;DHT22;6544;51.666;6.634;2022-10-31T09:23:30;15.00;99.90
12959;DHT22;6544;51.666;6.634;2022-10-31T09:26:00;15.00;1.00
12959;DHT22;6544;51.666;6.634;2022-10-31T09:28:29;15.00;1.00
12959;DHT22;6544;51.666;6.634;2022-10-31T09:30:57;15.10;1.00
12959;DHT22;6544;51.666;6.634;2022-10-31T09:33:24;15.20;99.90
12959;DHT22;6544;51.666;6.634;2022-10-31T09:35:51;15.20;99.90
12959;DHT22;6544;51.666;6.634;2022-10-31T09:38:19;15.20;99.90
12959;DHT22;6544;51.666;6.634;2022-10-31T09:40:51;15.20;1.00
12959;DHT22;6544;51.666;6.634;2022-10-31T09:43:25;15.30;1.00
12959;DHT22;6544;51.666;6.634;2022-10-31T09:46:01;15.40;1.00
12959;DHT22;6544;51.666;6.634;2022-10-31T09:48:38;15.40;99.90
12959;DHT22;6544;51.666;6.634;2022-10-31T09:51:08;15.50;99.90
12959;DHT22;6544;51.666;6.634;2022-10-31T09:53:40;15.40;99.90
12959;DHT22;6544;51.666;6.634;2022-10-31T09:56:11;15.50;99.90
12959;DHT22;6544;51.666;6.634;2022-10-31T09:58:42;15.40;99.90
12959;DHT22;6544;51.666;6.634;2022-10-31T10:01:22;15.40;1.00
12959;DHT22;6544;51.666;6.634;2022-10-31T10:03:53;15.30;1.00
12959;DHT22;6544;51.666;6.634;2022-10-31T10:06:24;15.30;1.00
12959;DHT22;6544;51.666;6.634;2022-10-31T10:08:51;15.40;1.00
12959;DHT22;6544;51.666;6.634;2022-10-31T10:11:31;15.50;1.00
12959;DHT22;6544;51.666;6.634;2022-10-31T10:14:13;15.60;1.00
12959;DHT22;6544;51.666;6.634;2022-10-31T10:17:00;15.80;99.90
12959;DHT22;6544;51.666;6.634;2022-10-31T10:19:43;15.90;99.90
12959;DHT22;6544;51.666;6.634;2022-10-31T10:22:24;16.00;99.90
12959;DHT22;6544;51.666;6.634;2022-10-31T10:25:00;16.10;99.90
12959;DHT22;6544;51.666;6.634;2022-10-31T10:27:39;16.20;99.90
12959;DHT22;6544;51.666;6.634;2022-10-31T10:30:13;16.30;99.90
12959;DHT22;6544;51.666;6.634;2022-10-31T10:32:45;16.40;99.90
12959;DHT22;6544;51.666;6.634;2022-10-31T10:35:19;16.40;99.90
12959;DHT22;6544;51.666;6.634;2022-10-31T10:37:50;16.50;99.90
12959;DHT22;6544;51.666;6.634;2022-10-31T10:40:23;16.60;1.00
12959;DHT22;6544;51.666;6.634;2022-10-31T10:43:00;16.70;1.00
12959;DHT22;6544;51.666;6.634;2022-10-31T10:45:50;16.90;1.00
12959;DHT22;6544;51.666;6.634;2022-10-31T10:48:42;17.00;1.00
12959;DHT22;6544;51.666;6.634;2022-10-31T10:51:20;17.10;99.90
12959;DHT22;6544;51.666;6.634;2022-10-31T10:54:10;17.20;99.90
12959;DHT22;6544;51.666;6.634;2022-10-31T10:56:51;17.30;1.00
12959;DHT22;6544;51.666;6.634;2022-10-31T10:59:21;17.40;1.00
12959;DHT22;6544;51.666;6.634;2022-10-31T11:01:50;17.40;1.00
12959;DHT22;6544;51.666;6.634;2022-10-31T11:04:30;17.50;1.00
12959;DHT22;6544;51.666;6.634;2022-10-31T11:06:59;17.50;1.00
12959;DHT22;6544;51.666;6.634;2022-10-31T11:09:26;17.60;1.00
12959;DHT22;6544;51.666;6.634;2022-10-31T11:11:54;17.60;1.00
12959;DHT22;6544;51.666;6.634;2022-10-31T11:14:22;17.60;99.90
12959;DHT22;6544;51.666;6.634;2022-10-31T11:16:55;17.60;99.90
12959;DHT22;6544;51.666;6.634;2022-10-31T11:19:24;17.60;1.00
12959;DHT22;6544;51.666;6.634;2022-10-31T11:21:53;17.50;99.90
12959;DHT22;6544;51.666;6.634;2022-10-31T11:24:22;17.50;99.90
12959;DHT22;6544;51.666;6.634;2022-10-31T11:26:51;17.70;99.90
12959;DHT22;6544;51.666;6.634;2022-10-31T11:29:21;17.70;99.90
12959;DHT22;6544;51.666;6.634;2022-10-31T11:31:52;17.70;1.00
12959;DHT22;6544;51.666;6.634;2022-10-31T11:34:28;17.70;1.00
12959;DHT22;6544;51.666;6.634;2022-10-31T11:37:03;17.80;1.00
12959;DHT22;6544;51.666;6.634;2022-10-31T11:39:40;17.90;1.00
12959;DHT22;6544;51.666;6.634;2022-10-31T11:42:08;18.00;99.90
12959;DHT22;6544;51.666;6.634;2022-10-31T11:44:34;18.10;1.00
12959;DHT22;6544;51.666;6.634;2022-10-31T11:47:03;18.10;99.90
12959;DHT22;6544;51.666;6.634;2022-10-31T11:49:34;18.20;1.00
12959;DHT22;6544;51.666;6.634;2022-10-31T11:52:06;18.20;99.90
12959;DHT22;6544;51.666;6.634;2022-10-31T11:54:38;18.20;99.90
12959;DHT22;6544;51.666;6.634;2022-10-31T11:57:25;18.20;1.00
12959;DHT22;6544;51.666;6.634;2022-10-31T11:59:54;18.20;99.90
12959;DHT22;6544;51.666;6.634;2022-10-31T12:02:22;18.20;99.90
12959;DHT22;6544;51.666;6.634;2022-10-31T12:04:55;18.10;1.00
12959;DHT22;6544;51.666;6.634;2022-10-31T12:07:26;18.10;1.00
12959;DHT22;6544;51.666;6.634;2022-10-31T12:09:53;18.20;96.20
12959;DHT22;6544;51.666;6.634;2022-10-31T12:12:53;18.20;1.00
12959;DHT22;6544;51.666;6.634;2022-10-31T12:15:39;18.20;1.00
12959;DHT22;6544;51.666;6.634;2022-10-31T12:18:23;18.20;1.00
12959;DHT22;6544;51.666;6.634;2022-10-31T12:21:00;18.30;1.00
12959;DHT22;6544;51.666;6.634;2022-10-31T12:23:41;18.20;34.10
12959;DHT22;6544;51.666;6.634;2022-10-31T12:26:16;18.10;99.90
12959;DHT22;6544;51.666;6.634;2022-10-31T12:28:57;18.00;1.00
12959;DHT22;6544;51.666;6.634;2022-10-31T12:31:41;18.10;1.00
12959;DHT22;6544;51.666;6.634;2022-10-31T12:34:32;18.20;1.00
12959;DHT22;6544;51.666;6.634;2022-10-31T12:37:08;18.10;99.90
12959;DHT22;6544;51.666;6.634;2022-10-31T12:39:44;18.10;99.90
12959;DHT22;6544;51.666;6.634;2022-10-31T12:42:21;18.10;99.90
12959;DHT22;6544;51.666;6.634;2022-10-31T12:45:22;18.20;99.90
12959;DHT22;6544;51.666;6.634;2022-10-31T12:48:03;18.20;1.00
12959;DHT22;6544;51.666;6.634;2022-10-31T12:50:47;18.30;1.00
12959;DHT22;6544;51.666;6.634;2022-10-31T12:53:26;18.30;1.00
12959;DHT22;6544;51.666;6.634;2022-10-31T12:56:12;18.30;99.90
12959;DHT22;6544;51.666;6.634;2022-10-31T12:58:47;18.40;1.00
12959;DHT22;6544;51.666;6.634;2022-10-31T13:01:18;18.30;99.90
12959;DHT22;6544;51.666;6.634;2022-10-31T13:03:55;18.30;99.90
12959;DHT22;6544;51.666;6.634;2022-10-31T13:06:29;18.30;99.90
12959;DHT22;6544;51.666;6.634;2022-10-31T13:08:59;18.40;1.00
12959;DHT22;6544;51.666;6.634;2022-10-31T13:11:32;18.40;99.90
12959;DHT22;6544;51.666;6.634;2022-10-31T13:14:04;18.50;99.90
12959;DHT22;6544;51.666;6.634;2022-10-31T13:16:35;18.40;1.00
12959;DHT22;6544;51.666;6.634;2022-10-31T13:19:08;18.50;1.00
12959;DHT22;6544;51.666;6.634;2022-10-31T13:21:40;18.40;1.00
12959;DHT22;6544;51.666;6.634;2022-10-31T13:24:12;18.30;1.00
12959;DHT22;6544;51.666;6.634;2022-10-31T13:26:45;18.40;1.00
12959;DHT22;6544;51.666;6.634;2022-10-31T13:29:18;18.30;1.00
12959;DHT22;6544;51.666;6.634;2022-10-31T13:31:47;18.20;99.90
12959;DHT22;6544;51.666;6.634;2022-10-31T13:34:22;18.20;99.90
12959;DHT22;6544;51.666;6.634;2022-10-31T13:36:59;18.30;99.90
12959;DHT22;6544;51.666;6.634;2022-10-31T13:39:38;18.30;1.00
12959;DHT22;6544;51.666;6.634;2022-10-31T13:42:14;18.30;99.90
12959;DHT22;6544;51.666;6.634;2022-10-31T13:44:43;18.30;99.90
12959;DHT22;6544;51.666;6.634;2022-10-31T13:47:25;18.30;99.90
12959;DHT22;6544;51.666;6.634;2022-10-31T13:50:04;18.40;1.00
12959;DHT22;6544;51.666;6.634;2022-10-31T13:52:31;18.40;1.00
12959;DHT22;6544;51.666;6.634;2022-10-31T13:54:59;18.30;1.00
12959;DHT22;6544;51.666;6.634;2022-10-31T13:57:32;18.30;99.90
12959;DHT22;6544;51.666;6.634;2022-10-31T14:00:02;18.40;14.40
12959;DHT22;6544;51.666;6.634;2022-10-31T14:02:32;18.40;1.00
12959;DHT22;6544;51.666;6.634;2022-10-31T14:05:02;18.40;1.00
12959;DHT22;6544;51.666;6.634;2022-10-31T14:07:30;18.40;99.90
12959;DHT22;6544;51.666;6.634;2022-10-31T14:10:00;18.50;99.90
12959;DHT22;6544;51.666;6.634;2022-10-31T14:12:33;18.50;1.00
12959;DHT22;6544;51.666;6.634;2022-10-31T14:15:04;18.50;99.90
12959;DHT22;6544;51.666;6.634;2022-10-31T14:17:40;18.40;99.90
12959;DHT22;6544;51.666;6.634;2022-10-31T14:20:39;18.40;1.00
12959;DHT22;6544;51.666;6.634;2022-10-31T14:23:30;18.50;99.90
12959;DHT22;6544;51.666;6.634;2022-10-31T14:26:17;18.40;99.90
12959;DHT22;6544;51.666;6.634;2022-10-31T14:28:47;18.40;99.90
12959;DHT22;6544;51.666;6.634;2022-10-31T14:31:36;18.30;99.90
12959;DHT22;6544;51.666;6.634;2022-10-31T14:34:27;18.40;99.90
12959;DHT22;6544;51.666;6.634;2022-10-31T14:37:25;18.40;1.00
12959;DHT22;6544;51.666;6.634;2022-10-31T14:40:12;18.40;99.90
12959;DHT22;6544;51.666;6.634;2022-10-31T14:43:04;18.30;99.90
12959;DHT22;6544;51.666;6.634;2022-10-31T14:45:45;18.30;1.00
12959;DHT22;6544;51.666;6.634;2022-10-31T14:48:41;18.30;1.00
12959;DHT22;6544;51.666;6.634;2022-10-31T14:51:13;18.30;1.00
12959;DHT22;6544;51.666;6.634;2022-10-31T14:53:45;18.40;1.00
12959;DHT22;6544;51.666;6.634;2022-10-31T14:56:16;18.40;99.90
12959;DHT22;6544;51.666;6.634;2022-10-31T14:58:46;18.30;1.00
12959;DHT22;6544;51.666;6.634;2022-10-31T15:01:21;18.30;1.00
12959;DHT22;6544;51.666;6.634;2022-10-31T15:03:49;18.40;99.90
12959;DHT22;6544;51.666;6.634;2022-10-31T15:06:19;18.40;1.00
12959;DHT22;6544;51.666;6.634;2022-10-31T15:08:48;18.30;1.00
12959;DHT22;6544;51.666;6.634;2022-10-31T15:11:17;18.40;1.00
12959;DHT22;6544;51.666;6.634;2022-10-31T15:13:46;18.40;99.90
12959;DHT22;6544;51.666;6.634;2022-10-31T15:16:16;18.40;99.90
12959;DHT22;6544;51.666;6.634;2022-10-31T15:18:52;18.40;99.90
12959;DHT22;6544;51.666;6.634;2022-10-31T15:21:20;18.30;1.00
12959;DHT22;6544;51.666;6.634;2022-10-31T15:23:49;18.30;1.00
12959;DHT22;6544;51.666;6.634;2022-10-31T15:26:18;18.30;1.00
12959;DHT22;6544;51.666;6.634;2022-10-31T15:28:56;18.30;1.00
12959;DHT22;6544;51.666;6.634;2022-10-31T15:31:24;18.30;1.00
12959;DHT22;6544;51.666;6.634;2022-10-31T15:33:53;18.20;1.00
12959;DHT22;6544;51.666;6.634;2022-10-31T15:36:24;18.20;1.00
12959;DHT22;6544;51.666;6.634;2022-10-31T15:38:51;18.30;1.00
12959;DHT22;6544;51.666;6.634;2022-10-31T15:41:24;18.20;1.00
12959;DHT22;6544;51.666;6.634;2022-10-31T15:43:54;18.20;1.00
12959;DHT22;6544;51.666;6.634;2022-10-31T15:46:21;18.20;1.00
12959;DHT22;6544;51.666;6.634;2022-10-31T15:48:48;18.20;99.90
12959;DHT22;6544;51.666;6.634;2022-10-31T15:51:25;18.20;1.00
12959;DHT22;6544;51.666;6.634;2022-10-31T15:53:54;18.20;57.60
12959;DHT22;6544;51.666;6.634;2022-10-31T15:56:25;18.20;1.00
12959;DHT22;6544;51.666;6.634;2022-10-31T15:58:55;18.10;99.90
12959;DHT22;6544;51.666;6.634;2022-10-31T16:01:24;18.10;99.90
12959;DHT22;6544;51.666;6.634;2022-10-31T16:04:19;18.10;1.00
12959;DHT22;6544;51.666;6.634;2022-10-31T16:07:00;18.00;99.90
12959;DHT22;6544;51.666;6.634;2022-10-31T16:09:28;18.00;99.90
12959;DHT22;6544;51.666;6.634;2022-10-31T16:11:56;18.00;99.90
12959;DHT22;6544;51.666;6.634;2022-10-31T16:14:26;18.00;1.00
12959;DHT22;6544;51.666;6.634;2022-10-31T16:16:57;17.90;1.00
12959;DHT22;6544;51.666;6.634;2022-10-31T16:19:28;17.90;1.00
12959;DHT22;6544;51.666;6.634;2022-10-31T16:22:05;17.90;1.00